createdAt,value
2018-08-11T00:02:26.881Z,18.07
2018-08-11T00:04:54.312Z,16.10
2018-08-11T00:07:21.747Z,16.93
2018-08-11T00:09:49.119Z,15.65
2018-08-11T00:12:16.538Z,16.10
2018-08-11T00:14:44.074Z,16.82
2018-08-11T00:17:11.440Z,16.10
2018-08-11T00:19:38.814Z,17.07
2018-08-11T00:22:06.296Z,16.50
2018-08-11T00:24:33.614Z,15.75
2018-08-11T00:27:01.011Z,15.80
2018-08-11T00:29:28.360Z,15.98
2018-08-11T00:31:56.036Z,17.77
2018-08-11T00:34:23.401Z,16.40
2018-08-11T00:36:50.907Z,16.00
2018-08-11T00:39:18.333Z,15.40
2018-08-11T00:41:45.702Z,16.00
2018-08-11T00:44:13.088Z,17.57
2018-08-11T00:46:40.431Z,15.83
2018-08-11T00:49:07.759Z,15.65
2018-08-11T00:51:35.461Z,15.72
2018-08-11T00:54:02.819Z,18.60
2018-08-11T00:56:30.326Z,15.75
2018-08-11T00:58:57.674Z,17.55
2018-08-11T01:01:25.078Z,16.57
2018-08-11T01:03:52.454Z,15.95
2018-08-11T01:06:19.862Z,14.98
2018-08-11T01:08:47.251Z,17.05
2018-08-11T01:11:14.638Z,15.03
2018-08-11T01:13:42.041Z,15.65
2018-08-11T01:16:09.448Z,15.65
2018-08-11T01:18:36.802Z,15.98
2018-08-11T01:21:04.204Z,17.55
2018-08-11T01:23:36.043Z,15.20
2018-08-11T01:26:04.199Z,15.45
2018-08-11T01:28:31.570Z,15.58
2018-08-11T01:30:58.963Z,16.10
2018-08-11T01:33:26.295Z,16.77
2018-08-11T01:35:54.486Z,16.10
2018-08-11T01:38:22.627Z,15.72
2018-08-11T01:40:50.012Z,16.42
2018-08-11T01:43:17.519Z,16.87
2018-08-11T01:45:44.894Z,16.37
2018-08-11T01:48:12.306Z,16.10
2018-08-11T01:50:39.690Z,15.30
2018-08-11T01:53:07.066Z,16.10
2018-08-11T01:55:34.386Z,18.27
2018-08-11T01:58:01.857Z,16.80
2018-08-11T02:00:30.078Z,18.07
2018-08-11T02:02:57.463Z,15.23
2018-08-11T02:05:24.778Z,15.72
2018-08-11T02:07:52.195Z,16.90
2018-08-11T02:10:20.692Z,16.17
2018-08-11T02:12:48.502Z,17.20
2018-08-11T02:15:16.202Z,16.25
2018-08-11T02:17:43.601Z,17.85
2018-08-11T02:20:13.727Z,15.28
2018-08-11T02:22:41.824Z,15.63
2018-08-11T02:25:09.971Z,15.75
2018-08-11T02:27:38.690Z,16.10
2018-08-11T02:30:07.998Z,15.65
2018-08-11T02:32:35.609Z,15.18
2018-08-11T02:35:03.983Z,15.20
2018-08-11T02:37:31.649Z,15.28
2018-08-11T02:39:59.684Z,15.60
2018-08-11T02:42:27.937Z,14.55
2018-08-11T02:44:55.840Z,14.43
2018-08-11T02:47:27.460Z,14.25
2018-08-11T02:49:54.900Z,14.25
2018-08-11T02:52:22.275Z,15.90
2018-08-11T02:54:49.641Z,14.95
2018-08-11T02:57:17.412Z,15.23
2018-08-11T02:59:49.195Z,16.57
2018-08-11T03:02:17.033Z,16.20
2018-08-11T03:04:44.379Z,15.40
2018-08-11T03:07:12.619Z,15.23
2018-08-11T03:09:39.971Z,15.30
2018-08-11T03:12:07.882Z,14.85
2018-08-11T03:14:35.356Z,14.60
2018-08-11T03:17:02.719Z,14.85
2018-08-11T03:19:31.106Z,14.90
2018-08-11T03:21:58.421Z,14.75
2018-08-11T03:24:26.547Z,14.83
2018-08-11T03:26:53.952Z,15.65
2018-08-11T03:29:22.550Z,15.75
2018-08-11T03:31:50.080Z,15.65
2018-08-11T03:36:44.202Z,15.43
2018-08-11T03:39:12.607Z,16.77
2018-08-11T03:44:07.564Z,16.27
2018-08-11T03:46:35.755Z,16.23
2018-08-11T03:49:03.726Z,16.35
2018-08-11T03:51:31.132Z,17.05
2018-08-11T03:53:58.542Z,16.90
2018-08-11T03:56:26.346Z,16.48
2018-08-11T03:58:54.361Z,16.70
2018-08-11T04:01:22.193Z,17.10
2018-08-11T04:03:50.217Z,16.95
2018-08-11T04:06:17.586Z,17.00
2018-08-11T04:08:44.943Z,17.07
2018-08-11T04:11:12.294Z,17.40
2018-08-11T04:13:39.701Z,17.20
2018-08-11T04:16:07.404Z,17.45
2018-08-11T04:18:34.924Z,17.60
2018-08-11T04:21:02.325Z,17.40
2018-08-11T04:23:29.654Z,17.75
2018-08-11T04:25:58.198Z,17.42
2018-08-11T04:28:25.549Z,17.90
2018-08-11T04:30:53.568Z,17.62
2018-08-11T04:33:20.972Z,18.12
2018-08-11T04:35:48.324Z,17.90
2018-08-11T04:38:15.688Z,18.40
2018-08-11T04:40:43.032Z,17.17
2018-08-11T04:43:11.015Z,18.10
2018-08-11T04:45:39.154Z,17.30
2018-08-11T04:48:06.530Z,18.25
2018-08-11T04:50:33.809Z,18.02
2018-08-11T04:53:01.122Z,18.15
2018-08-11T04:55:28.734Z,18.77
2018-08-11T04:57:56.022Z,18.02
2018-08-11T05:00:23.325Z,18.20
2018-08-11T05:02:50.638Z,23.65
2018-08-11T05:05:17.954Z,19.35
2018-08-11T05:07:45.238Z,21.55
2018-08-11T05:10:12.588Z,20.55
2018-08-11T05:12:39.945Z,20.85
2018-08-11T05:15:07.662Z,21.33
2018-08-11T05:17:35.372Z,22.05
2018-08-11T05:20:02.672Z,21.02
2018-08-11T05:22:30.003Z,21.60
2018-08-11T05:24:57.272Z,21.05
2018-08-11T05:27:24.566Z,21.37
2018-08-11T05:29:51.894Z,20.90
2018-08-11T05:32:19.238Z,20.60
2018-08-11T05:34:46.581Z,20.88
2018-08-11T05:37:13.918Z,21.05
2018-08-11T05:39:41.197Z,20.85
2018-08-11T05:42:08.535Z,20.68
2018-08-11T05:44:35.886Z,20.85
2018-08-11T05:47:03.231Z,20.27
2018-08-11T05:49:30.914Z,19.52
2018-08-11T05:51:58.222Z,18.90
2018-08-11T05:54:25.527Z,19.35
2018-08-11T05:56:52.815Z,21.60
2018-08-11T05:59:20.220Z,20.23
2018-08-11T06:01:47.521Z,19.12
2018-08-11T06:04:14.927Z,19.62
2018-08-11T06:06:42.327Z,18.87
2018-08-11T06:09:10.444Z,19.90
2018-08-11T06:11:38.074Z,18.10
2018-08-11T06:14:05.398Z,18.55
2018-08-11T06:16:32.922Z,21.82
2018-08-11T06:19:00.282Z,20.15
2018-08-11T06:21:28.540Z,21.12
2018-08-11T06:23:55.854Z,24.02
2018-08-11T06:26:23.224Z,23.38
2018-08-11T06:28:50.529Z,24.12
2018-08-11T06:31:17.928Z,22.32
2018-08-11T06:33:45.234Z,24.10
2018-08-11T06:36:12.731Z,25.92
2018-08-11T06:38:40.041Z,22.95
2018-08-11T06:41:07.470Z,23.98
2018-08-11T06:43:35.182Z,25.25
2018-08-11T06:46:02.475Z,24.72
2018-08-11T06:48:29.769Z,23.30
2018-08-11T06:50:57.162Z,23.12
2018-08-11T06:53:24.496Z,26.87
2018-08-11T06:55:51.878Z,26.52
2018-08-11T06:58:19.182Z,26.68
2018-08-11T07:00:46.632Z,24.87
2018-08-11T07:03:13.990Z,27.13
2018-08-11T07:05:41.309Z,28.10
2018-08-11T07:08:09.303Z,27.77
2018-08-11T07:10:37.020Z,25.73
2018-08-11T07:13:05.003Z,25.03
2018-08-11T07:15:32.641Z,24.65
2018-08-11T07:17:59.946Z,26.30
2018-08-11T07:20:27.234Z,26.20
2018-08-11T07:22:54.618Z,20.67
2018-08-11T07:25:21.907Z,21.03
2018-08-11T07:27:49.187Z,21.80
2018-08-11T07:30:17.586Z,22.13
2018-08-11T07:32:44.823Z,22.70
2018-08-11T07:35:12.114Z,20.43
2018-08-11T07:37:39.870Z,20.60
2018-08-11T07:40:07.233Z,20.47
2018-08-11T07:42:34.647Z,20.10
2018-08-11T07:45:02.377Z,19.60
2018-08-11T07:47:29.662Z,19.60
2018-08-11T07:49:57.722Z,20.73
2018-08-11T07:52:25.008Z,20.53
2018-08-11T07:54:52.310Z,19.50
2018-08-11T07:57:19.607Z,20.07
2018-08-11T07:59:46.883Z,21.07
2018-08-11T08:02:14.196Z,21.37
2018-08-11T08:04:41.656Z,22.00
2018-08-11T08:07:08.938Z,19.80
2018-08-11T08:09:36.226Z,19.43
2018-08-11T08:12:03.521Z,18.00
2018-08-11T08:14:30.815Z,19.57
2018-08-11T08:16:58.146Z,20.10
2018-08-11T08:19:26.030Z,19.67
2018-08-11T08:21:53.365Z,21.23
2018-08-11T08:24:20.742Z,20.27
2018-08-11T08:26:48.122Z,19.20
2018-08-11T08:29:15.389Z,21.33
2018-08-11T08:31:42.991Z,19.67
2018-08-11T08:34:10.291Z,19.57
2018-08-11T08:36:37.575Z,19.07
2018-08-11T08:39:06.805Z,19.27
2018-08-11T08:41:34.117Z,19.17
2018-08-11T08:44:01.471Z,19.77
2018-08-11T08:46:28.772Z,19.00
2018-08-11T08:48:56.125Z,18.97
2018-08-11T08:51:24.090Z,17.40
2018-08-11T08:53:51.447Z,20.20
2018-08-11T08:56:18.762Z,18.67
2018-08-11T08:58:46.466Z,17.43
2018-08-11T09:01:13.804Z,18.17
2018-08-11T09:03:41.098Z,19.70
2018-08-11T09:06:08.452Z,19.00
2018-08-11T09:08:36.289Z,19.47
2018-08-11T09:11:03.655Z,18.60
2018-08-11T09:13:31.026Z,17.20
2018-08-11T09:15:58.508Z,17.60
2018-08-11T09:18:25.830Z,19.07
2018-08-11T09:20:56.117Z,18.50
2018-08-11T09:23:23.397Z,18.63
2018-08-11T09:25:50.723Z,17.83
2018-08-11T09:28:18.087Z,19.90
2018-08-11T09:30:45.391Z,19.00
2018-08-11T09:33:12.795Z,18.23
2018-08-11T09:35:40.085Z,18.30
2018-08-11T09:38:08.018Z,22.40
2018-08-11T09:40:35.422Z,19.53
2018-08-11T09:43:02.715Z,17.27
2018-08-11T09:45:30.030Z,17.30
2018-08-11T09:47:58.124Z,17.67
2018-08-11T09:50:25.446Z,17.33
2018-08-11T09:52:52.775Z,18.10
2018-08-11T09:55:20.066Z,19.50
2018-08-11T09:57:47.974Z,17.77
2018-08-11T10:00:19.607Z,16.77
2018-08-11T10:02:46.951Z,16.63
2018-08-11T10:05:14.332Z,17.23
2018-08-11T10:07:42.315Z,17.43
2018-08-11T10:10:09.893Z,16.37
2018-08-11T10:12:41.390Z,18.30
2018-08-11T10:15:09.404Z,18.70
2018-08-11T10:17:36.725Z,16.67
2018-08-11T10:20:05.578Z,18.53
2018-08-11T10:22:32.946Z,17.10
2018-08-11T10:25:00.939Z,16.50
2018-08-11T10:27:28.750Z,16.20
2018-08-11T10:29:56.562Z,17.63
2018-08-11T10:32:24.089Z,17.30
2018-08-11T10:34:51.422Z,17.90
2018-08-11T10:37:19.126Z,16.13
2018-08-11T10:39:46.458Z,16.60
2018-08-11T10:42:13.809Z,19.00
2018-08-11T10:44:41.243Z,17.27
2018-08-11T10:47:08.800Z,18.03
2018-08-11T10:49:40.126Z,16.43
2018-08-11T10:52:07.505Z,18.60
2018-08-11T10:54:34.886Z,19.63
2018-08-11T10:57:02.247Z,16.67
2018-08-11T10:59:29.597Z,17.67
2018-08-11T11:01:58.163Z,16.60
2018-08-11T11:04:26.282Z,18.30
2018-08-11T11:06:54.037Z,17.47
2018-08-11T11:09:21.592Z,15.93
2018-08-11T11:11:50.295Z,18.60
2018-08-11T11:14:17.766Z,19.10
2018-08-11T11:16:45.138Z,19.20
2018-08-11T11:21:39.275Z,17.07
2018-08-11T11:24:13.656Z,16.50
2018-08-11T11:26:40.987Z,17.03
2018-08-11T11:29:08.442Z,17.07
2018-08-11T11:31:36.378Z,17.57
2018-08-11T11:34:04.160Z,16.40
2018-08-11T11:36:31.507Z,16.90
2018-08-11T11:39:04.523Z,16.90
2018-08-11T11:41:31.903Z,17.37
2018-08-11T11:43:59.639Z,17.20
2018-08-11T11:46:28.635Z,19.10
2018-08-11T11:48:55.994Z,17.30
2018-08-11T11:51:23.334Z,17.83
2018-08-11T11:53:50.660Z,20.53
2018-08-11T11:56:19.031Z,17.50
2018-08-11T11:58:46.582Z,18.07
2018-08-11T12:03:40.779Z,17.30
2018-08-11T12:06:08.131Z,18.43
2018-08-11T12:08:35.557Z,16.47
2018-08-11T12:11:02.890Z,16.80
2018-08-11T12:13:30.213Z,16.40
2018-08-11T12:15:57.548Z,16.77
2018-08-11T12:18:25.230Z,17.70
2018-08-11T12:20:53.442Z,16.60
2018-08-11T12:23:20.846Z,16.50
2018-08-11T12:25:48.195Z,16.20
2018-08-11T12:28:19.565Z,18.00
2018-08-11T12:33:13.677Z,17.67
2018-08-11T12:35:41.107Z,16.83
2018-08-11T12:38:08.437Z,16.70
2018-08-11T12:40:35.789Z,16.00
2018-08-11T12:43:03.518Z,16.60
2018-08-11T12:45:30.942Z,16.80
2018-08-11T12:47:58.258Z,17.53
2018-08-11T12:50:25.622Z,18.70
2018-08-11T12:52:52.986Z,17.23
2018-08-11T12:55:20.366Z,16.17
2018-08-11T12:57:47.743Z,16.27
2018-08-11T13:00:15.034Z,15.20
2018-08-11T13:02:42.362Z,16.30
2018-08-11T13:05:09.775Z,16.27
2018-08-11T13:07:37.099Z,16.03
2018-08-11T13:10:05.027Z,15.50
2018-08-11T13:12:32.666Z,16.40
2018-08-11T13:15:00.425Z,15.70
2018-08-11T13:17:27.852Z,15.73
2018-08-11T13:19:55.288Z,17.50
2018-08-11T13:22:22.911Z,16.73
2018-08-11T13:24:50.306Z,17.17
2018-08-11T13:27:17.606Z,16.30
2018-08-11T13:29:44.906Z,16.87
2018-08-11T13:32:12.207Z,16.83
2018-08-11T13:34:39.510Z,15.70
2018-08-11T13:37:07.620Z,16.30
2018-08-11T13:39:34.875Z,16.00
2018-08-11T13:42:02.193Z,15.50
2018-08-11T13:44:29.486Z,15.30
2018-08-11T13:46:56.742Z,15.07
2018-08-11T13:49:24.066Z,21.43
2018-08-11T13:51:51.351Z,15.30
2018-08-11T13:54:18.709Z,14.97
2018-08-11T13:56:45.958Z,17.97
2018-08-11T13:59:13.267Z,16.00
2018-08-11T14:01:40.563Z,14.70
2018-08-11T14:04:07.868Z,15.90
2018-08-11T14:06:35.318Z,16.40
2018-08-11T14:09:02.678Z,18.93
2018-08-11T14:11:29.982Z,17.40
2018-08-11T14:13:57.301Z,16.93
2018-08-11T14:16:25.433Z,16.23
2018-08-11T14:18:53.025Z,14.60
2018-08-11T14:21:20.361Z,15.70
2018-08-11T14:23:48.227Z,14.57
2018-08-11T14:26:15.642Z,15.27
2018-08-11T14:28:43.050Z,15.50
2018-08-11T14:31:11.330Z,14.90
2018-08-11T14:33:38.691Z,17.57
2018-08-11T14:36:06.108Z,15.70
2018-08-11T14:38:33.528Z,16.20
2018-08-11T14:41:00.832Z,15.20
2018-08-11T14:43:28.134Z,14.80
2018-08-11T14:45:56.194Z,14.80
2018-08-11T14:48:23.498Z,14.93
2018-08-11T14:50:50.797Z,15.00
2018-08-11T14:53:18.116Z,16.97
2018-08-11T14:55:45.366Z,14.70
2018-08-11T14:58:12.773Z,15.40
2018-08-11T15:00:40.084Z,14.70
2018-08-11T15:03:07.430Z,17.23
2018-08-11T15:05:34.773Z,15.97
2018-08-11T15:08:02.086Z,16.80
2018-08-11T15:10:29.583Z,16.13
2018-08-11T15:12:56.858Z,15.07
2018-08-11T15:15:24.150Z,14.37
2018-08-11T15:17:51.410Z,16.80
2018-08-11T15:20:18.759Z,16.47
2018-08-11T15:22:46.367Z,15.03
2018-08-11T15:25:13.673Z,17.43
2018-08-11T15:27:40.979Z,15.20
2018-08-11T15:30:09.539Z,15.60
2018-08-11T15:32:37.128Z,15.50
2018-08-11T15:35:05.034Z,14.53
2018-08-11T15:37:32.370Z,14.70
2018-08-11T15:39:59.654Z,15.17
2018-08-11T15:42:26.950Z,14.17
2018-08-11T15:44:54.271Z,14.77
2018-08-11T15:47:21.552Z,14.87
2018-08-11T15:49:48.892Z,14.10
2018-08-11T15:52:16.171Z,15.77
2018-08-11T15:54:43.471Z,14.53
2018-08-11T15:57:10.777Z,15.90
2018-08-11T15:59:38.103Z,17.83
2018-08-11T16:02:05.522Z,15.20
2018-08-11T16:04:32.898Z,17.10
2018-08-11T16:07:00.258Z,15.50
2018-08-11T16:09:28.235Z,15.60
2018-08-11T16:11:55.637Z,15.30
2018-08-11T16:14:23.036Z,16.43
2018-08-11T16:16:50.358Z,15.50
2018-08-11T16:19:17.941Z,14.80
2018-08-11T16:21:45.416Z,18.17
2018-08-11T16:24:12.772Z,16.13
2018-08-11T16:26:40.251Z,14.40
2018-08-11T16:29:07.572Z,16.53
2018-08-11T16:31:35.030Z,14.87
2018-08-11T16:34:03.149Z,15.63
2018-08-11T16:36:30.631Z,15.53
2018-08-11T16:38:58.034Z,14.20
2018-08-11T16:41:26.001Z,15.03
2018-08-11T16:43:53.626Z,14.43
2018-08-11T16:46:21.413Z,14.60
2018-08-11T16:48:48.938Z,14.90
2018-08-11T16:51:16.321Z,15.30
2018-08-11T16:53:43.750Z,15.90
2018-08-11T16:56:11.070Z,14.80
2018-08-11T16:58:40.314Z,17.40
2018-08-11T17:01:07.619Z,15.60
2018-08-11T17:03:35.719Z,14.60
2018-08-11T17:06:03.484Z,14.07
2018-08-11T17:08:30.934Z,14.90
2018-08-11T17:10:58.273Z,15.00
2018-08-11T17:13:26.128Z,15.67
2018-08-11T17:15:53.494Z,15.77
2018-08-11T17:18:20.908Z,15.57
2018-08-11T17:20:48.287Z,14.50
2018-08-11T17:23:15.587Z,15.10
2018-08-11T17:25:42.958Z,15.20
2018-08-11T17:28:10.306Z,16.47
2018-08-11T17:30:38.346Z,16.20
2018-08-11T17:33:05.835Z,14.30
2018-08-11T17:35:33.243Z,14.90
2018-08-11T17:38:00.586Z,15.37
2018-08-11T17:40:28.474Z,14.23
2018-08-11T17:42:55.813Z,14.37
2018-08-11T17:45:23.201Z,14.57
2018-08-11T17:47:50.598Z,14.30
2018-08-11T17:50:18.439Z,14.50
2018-08-11T17:52:45.847Z,15.50
2018-08-11T17:55:13.262Z,15.10
2018-08-11T17:57:41.139Z,15.60
2018-08-11T18:00:08.583Z,14.50
2018-08-11T18:02:36.052Z,14.27
2018-08-11T18:05:04.130Z,14.90
2018-08-11T18:07:31.493Z,15.10
2018-08-11T18:09:58.926Z,35.33
2018-08-11T18:12:26.231Z,15.10
2018-08-11T18:14:53.722Z,15.00
2018-08-11T18:17:21.952Z,15.57
2018-08-11T18:19:49.303Z,16.13
2018-08-11T18:22:16.847Z,14.73
2018-08-11T18:24:44.865Z,16.00
2018-08-11T18:27:12.279Z,14.90
2018-08-11T18:29:39.721Z,14.90
2018-08-11T18:32:07.799Z,15.00
2018-08-11T18:34:35.541Z,15.47
2018-08-11T18:37:03.029Z,14.97
2018-08-11T18:39:30.377Z,16.50
2018-08-11T18:41:57.879Z,15.40
2018-08-11T18:44:25.277Z,16.17
2018-08-11T18:46:52.641Z,15.00
2018-08-11T18:49:20.059Z,15.40
2018-08-11T18:51:47.440Z,15.90
2018-08-11T18:54:14.826Z,18.30
2018-08-11T18:56:42.220Z,15.40
2018-08-11T18:59:09.538Z,16.00
2018-08-11T19:01:37.299Z,16.27
2018-08-11T19:04:04.736Z,15.90
2018-08-11T19:06:32.713Z,17.07
2018-08-11T19:09:00.161Z,15.53
2018-08-11T19:11:28.538Z,16.10
2018-08-11T19:14:01.105Z,15.17
2018-08-11T19:16:28.520Z,16.43
2018-08-11T19:18:56.016Z,15.90
2018-08-11T19:21:23.445Z,16.63
2018-08-11T19:23:51.491Z,15.80
2018-08-11T19:26:19.036Z,16.63
2018-08-11T19:28:47.573Z,17.20
2018-08-11T19:31:14.939Z,15.93
2018-08-11T19:33:42.371Z,16.12
2018-08-11T19:38:41.863Z,16.20
2018-08-11T19:41:09.448Z,16.50
2018-08-11T19:43:37.087Z,17.15
2018-08-11T19:46:06.614Z,16.93
2018-08-11T19:48:34.829Z,16.80
2018-08-11T19:51:02.201Z,17.20
2018-08-11T19:53:34.120Z,17.83
2018-08-11T19:56:03.271Z,16.50
2018-08-11T19:58:31.597Z,16.53
2018-08-11T20:00:59.538Z,18.03
2018-08-11T20:03:26.959Z,16.60
2018-08-11T20:05:55.355Z,17.32
2018-08-11T20:08:22.807Z,16.90
2018-08-11T20:10:50.242Z,17.27
2018-08-11T20:13:17.762Z,17.17
2018-08-11T20:15:46.000Z,16.97
2018-08-11T20:18:13.387Z,16.30
2018-08-11T20:20:44.920Z,15.95
2018-08-11T20:23:16.689Z,16.30
2018-08-11T20:25:45.007Z,15.90
2018-08-11T20:28:18.029Z,17.52
2018-08-11T20:30:45.918Z,17.90
2018-08-11T20:33:13.962Z,18.10
2018-08-11T20:35:42.543Z,17.85
2018-08-11T20:38:12.495Z,17.73
2018-08-11T20:40:44.634Z,17.02
2018-08-11T20:45:43.678Z,17.05
2018-08-11T20:48:11.169Z,17.50
2018-08-11T20:50:52.164Z,19.67
2018-08-11T20:53:20.201Z,16.55
2018-08-11T20:55:47.740Z,17.40
2018-08-11T20:58:15.231Z,18.05
2018-08-11T21:03:13.840Z,20.80
2018-08-11T21:05:41.169Z,17.65
2018-08-11T21:08:09.240Z,16.90
2018-08-11T21:10:36.759Z,17.02
2018-08-11T21:13:08.575Z,20.27
2018-08-11T21:15:36.040Z,17.17
2018-08-11T21:18:03.542Z,16.95
2018-08-11T21:20:30.970Z,16.80
2018-08-11T21:22:59.065Z,20.70
2018-08-11T21:25:26.540Z,16.80
2018-08-11T21:27:54.168Z,19.70
2018-08-11T21:30:26.866Z,17.77
2018-08-11T21:32:54.283Z,17.10
2018-08-11T21:37:48.455Z,16.60
2018-08-11T21:40:16.202Z,16.77
2018-08-11T21:42:44.021Z,17.07
2018-08-11T21:45:12.181Z,16.70
2018-08-11T21:47:40.658Z,17.00
2018-08-11T21:50:08.668Z,17.15
2018-08-11T21:52:37.867Z,17.92
2018-08-11T21:55:05.960Z,16.15
2018-08-11T21:57:33.875Z,18.42
2018-08-11T22:00:01.406Z,16.45
2018-08-11T22:02:28.771Z,16.45
2018-08-11T22:04:56.137Z,17.60
2018-08-11T22:07:23.740Z,16.27
2018-08-11T22:09:51.319Z,16.87
2018-08-11T22:12:18.983Z,16.70
2018-08-11T22:14:50.258Z,16.80
2018-08-11T22:17:18.217Z,17.10
2018-08-11T22:19:46.102Z,15.98
2018-08-11T22:22:13.550Z,16.62
2018-08-11T22:24:45.466Z,15.78
2018-08-11T22:27:13.206Z,17.77
2018-08-11T22:29:41.615Z,15.65
2018-08-11T22:32:09.026Z,15.95
2018-08-11T22:34:37.151Z,16.42
2018-08-11T22:37:04.762Z,15.80
2018-08-11T22:39:32.887Z,15.60
2018-08-11T22:42:01.613Z,17.62
2018-08-11T22:44:29.815Z,15.75
2018-08-11T22:47:01.776Z,18.48
2018-08-11T22:49:29.115Z,15.23
2018-08-11T22:51:56.522Z,16.82
2018-08-11T22:54:23.945Z,15.35
2018-08-11T22:56:52.864Z,15.15
2018-08-11T22:59:20.467Z,15.50
2018-08-11T23:01:52.786Z,16.00
2018-08-11T23:04:20.279Z,16.62
2018-08-11T23:06:47.754Z,15.50
2018-08-11T23:09:16.789Z,17.30
2018-08-11T23:11:44.524Z,17.98
2018-08-11T23:14:11.954Z,16.40
2018-08-11T23:16:41.221Z,15.65
2018-08-11T23:19:08.650Z,15.58
2018-08-11T23:21:36.057Z,16.10
2018-08-11T23:24:03.492Z,16.30
2018-08-11T23:26:31.446Z,17.17
2018-08-11T23:28:58.852Z,15.90
2018-08-11T23:31:26.527Z,15.60
2018-08-11T23:33:53.962Z,16.05
2018-08-11T23:36:21.358Z,16.42
2018-08-11T23:38:48.730Z,16.45
2018-08-11T23:41:16.256Z,15.85
2018-08-11T23:43:43.641Z,16.30
2018-08-11T23:46:11.061Z,16.95
2018-08-11T23:48:38.479Z,16.00
2018-08-11T23:51:05.917Z,15.30
2018-08-11T23:53:33.406Z,15.60
2018-08-11T23:56:00.810Z,15.70
2018-08-11T23:58:28.700Z,16.42
